Chrisman, Illinois
Current Conditions -  °F | °C
As of 7:35 AM on Monday 24 Nov 2014 (Local Time) from KPRG Reporting Station
Overcast Overcast  
Wind Chill: 28°   Ceiling: 1100
Heat Index: 39°   Visibility: 10mi
Dew Point: 37°   Wind: 26mph
Humidity: 93%   Direction: 260°W
Pressure: 29.35"   Gusts: 39mph
Location:  39.8°N, 87.67°W
Report Text: KPRG 241335Z AUTO 26023G34KT 10SM OVC011 04/03 A2935 RMK AO2 T00410030
Loading
Personal Weather Stations






























Interactive Weather Map New forecast layout! Learn more

10-Day Weather Forecast

Advertisements
Track Severe Weather on mobile